Station: Knuckey Lagoon  

  Atmospheric Gas Attenuation - ITU Rec 676-11   ----------------- dB/100km -----------------
Date Time Temp RH % AH g/m3 Dew Point Wind Direction Speed kph Gust kph Barometer mB Rainfall Since 9am 24GHz 47GHz 76GHz 122GHz 134GHz 241GHz
08/05 12:10 29.4 43 12.62 15.8 26 30 1011.5 0 27.2 27.4 46.8 123.3 126.7 439.6
08/05 12:00 29.9 43 12.97 16 19 26 1011.7 0 27.9 27.8 47.8 126.0 130.2 451.8
08/05 11:50 29.3 43 12.56 15.7 20 24 1011.9 0 27.1 27.4 46.6 122.9 126.2 437.7
08/05 11:40 28.8 43 12.22 15.3 15 17 1012 0 26.4 27.0 45.7 120.3 122.9 426.0
08/05 11:30 28.6 45 12.65 15.5 19 30 1012.1 0 27.3 27.8 47.4 124.9 128.5 445.5
08/05 11:20 28.5 45 12.58 15.4 13 17 1012.3 0 27.2 27.7 47.2 124.4 127.8 443.1
08/05 11:10 28.4 45 12.51 15.3 13 19 1012.5 0 27.0 27.6 47.0 123.9 127.1 440.7
08/05 11:00 28.5 45 12.58 15.4 17 24 1012.6 0 27.2 27.7 47.2 124.4 127.8 443.2
08/05 10:50 27.8 46 12.37 15.1 15 17 1012.7 0 26.8 27.6 46.8 123.4 126.4 438.0
08/05 10:40 27.2 45 11.71 14.5 17 20 1012.7 0 25.4 26.8 44.7 117.7 119.2 412.9
08/05 10:30 27.1 46 11.9 14.5 20 30 1012.8 0 25.8 27.1 45.5 119.8 121.7 421.6
08/05 10:20 26.8 46 11.71 14.5 20 24 1012.9 0 25.5 26.9 44.9 118.3 119.8 415.0
08/05 10:10 26.5 46 11.52 14.2 20 32 1012.9 0 25.1 26.7 44.4 116.9 117.9 408.4
08/05 10:00 26.6 48 12.08 14.7 19 32 1013 0 26.2 27.5 46.4 122.4 124.7 432.1
08/05 09:50 26.5 46 11.52 14.2 13 15 1012.9 0 25.1 26.7 44.4 116.9 117.9 408.4
08/05 09:40 25.9 47 11.38 13.7 24 30 1013 0 24.8 26.7 44.2 116.4 117.1 405.5
08/05 09:30 25.7 48 11.49 13.9 22 32 1012.9 0 25.1 26.9 44.7 117.8 118.8 411.2
08/05 09:20 25.5 50 11.84 14.3 15 19 1012.9 0 25.8 27.5 46.2 121.6 123.4 427.5
08/05 09:10 25 49 11.28 13.8 19 22 1012.8 0 24.7 26.8 44.3 116.7 117.2 405.7
08/05 09:00 24.7 51 11.54 13.9 15 24 1012.8 0 25.2 27.3 45.5 119.7 120.9 418.6
08/05 08:50 23.9 51 11.03 13.4 20 26 1012.8 0 24.2 26.7 44.0 115.7 115.7 400.4
08/05 08:40 23.5 53 11.21 13.6 15 17 1012.7 0 24.6 27.1 44.9 118.1 118.6 410.3
08/05 08:30 23.2 54 11.23 13.4 19 28 1012.8 0 24.7 27.3 45.1 118.8 119.3 412.8
08/05 08:20 23.2 54 11.23 13.6 17 22 1012.7 0 24.7 27.3 45.1 118.8 119.3 412.7
08/05 08:10 22.9 54 11.04 13.3 17 22 1012.7 0 24.3 27.1 44.6 117.3 117.3 405.8
08/05 08:00 22.6 57 11.45 13.7 15 24 1012.5 0 25.2 27.8 46.3 122.0 123.0 425.7
08/05 07:50 22.3 56 11.06 13.3 15 20 1012.5 0 24.4 27.3 45.0 118.3 118.5 409.8
08/05 07:40 22.1 56 10.93 13.1 17 22 1012.4 0 24.1 27.1 44.6 117.3 117.1 405.0
08/05 07:30 21.7 58 11.06 13.1 17 22 1012.2 0 24.4 27.4 45.3 119.2 119.3 412.8
08/05 07:20 21.6 58 11 13.2 13 15 1012.2 0 24.3 27.4 45.1 118.7 118.7 410.6
08/05 07:10 21.4 58 10.87 13 15 20 1012.1 0 24.0 27.2 44.7 117.7 117.3 405.8
08/05 07:00 21.4 59 11.06 13.1 15 28 1012 0 24.4 27.5 45.4 119.6 119.8 414.3
08/05 06:50 21.4 58 10.87 13 15 17 1012 0 24.0 27.2 44.7 117.6 117.3 405.7
08/05 06:40 21.4 58 10.87 13 15 19 1011.9 0 24.0 27.2 44.7 117.6 117.3 405.7
08/05 06:30 21.5 59 11.12 13.2 15 24 1011.8 0 24.5 27.6 45.6 120.1 120.4 416.4
08/05 06:20 21.7 57 10.87 13 17 20 1011.7 0 24.0 27.1 44.5 117.2 116.9 404.1
08/05 06:10 21.7 57 10.87 13 13 17 1011.7 0 24.0 27.1 44.5 117.2 116.9 404.1
08/05 06:00 21.7 58 11.06 13.1 15 22 1011.7 0 24.4 27.4 45.3 119.2 119.3 412.6
08/05 05:50 21.7 57 10.87 13 11 13 1011.6 0 24.0 27.1 44.5 117.2 116.8 404.1
08/05 05:40 21.9 57 11 13 17 22 1011.6 0 24.3 27.3 44.9 118.2 118.2 408.9
08/05 05:30 21.8 58 11.13 13.2 15 20 1011.5 0 24.5 27.5 45.5 119.7 120.0 415.2
08/05 05:20 21.9 57 11 13.2 11 15 1011.4 0 24.3 27.2 44.9 118.2 118.2 408.8
08/05 05:10 21.8 57 10.94 13.1 17 19 1011.4 0 24.1 27.2 44.7 117.7 117.6 406.6
08/05 05:00 21.9 58 11.19 13.3 15 26 1011.5 0 24.7 27.5 45.6 120.2 120.6 417.4
08/05 04:50 21.7 59 11.25 13.3 13 15 1011.5 0 24.8 27.7 46.0 121.1 121.7 421.1
08/05 04:40 22 57 11.06 13.1 13 20 1011.3 0 24.4 27.3 45.1 118.7 118.8 410.9
08/05 04:30 22.1 57 11.13 13.2 15 24 1011.2 0 24.5 27.4 45.3 119.2 119.5 413.5
08/05 04:20 22.2 56 10.99 13.2 13 17 1011.1 0 24.2 27.1 44.7 117.6 117.6 406.7
08/05 04:10 22.3 56 11.06 13.1 15 17 1011.2 0 24.4 27.2 44.9 118.2 118.3 409.3
08/05 04:00 22.2 57 11.19 13.3 13 22 1011.2 0 24.6 27.4 45.5 119.7 120.2 415.7
08/05 03:50 22.3 56 11.06 13.3 13 15 1011.3 0 24.4 27.2 44.9 118.2 118.3 409.4
08/05 03:40 22.4 56 11.12 13.4 15 17 1011.4 0 24.5 27.3 45.1 118.7 119.0 411.6
08/05 03:30 22.2 57 11.19 13.5 11 17 1011.4 0 24.6 27.5 45.5 119.7 120.2 415.8
08/05 03:20 22.3 58 11.45 13.6 11 15 1011.5 0 25.2 27.8 46.4 122.3 123.4 427.0
08/05 03:10 22.3 58 11.45 13.6 11 15 1011.4 0 25.2 27.8 46.4 122.3 123.4 426.9
08/05 03:00 22.6 56 11.25 13.4 11 19 1011.4 0 24.7 27.4 45.5 119.7 120.3 416.3
08/05 02:50 22.5 56 11.18 13.5 11 15 1011.5 0 24.6 27.3 45.3 119.2 119.6 413.8
08/05 02:40 22.7 55 11.11 13.4 11 13 1011.7 0 24.4 27.2 44.9 118.2 118.4 409.7
08/05 02:30 22.6 57 11.45 13.7 13 19 1011.7 0 25.2 27.7 46.3 121.9 122.9 425.4
08/05 02:20 22.8 55 11.18 13.5 11 13 1011.8 0 24.6 27.3 45.1 118.8 119.2 412.3
08/05 02:10 22.6 56 11.25 13.6 13 17 1011.9 0 24.7 27.4 45.5 119.8 120.4 416.5
08/05 02:00 22.7 56 11.31 13.7 11 17 1011.9 0 24.9 27.5 45.7 120.3 121.0 418.7
08/05 01:50 22.9 55 11.24 13.6 11 15 1012 0 24.7 27.3 45.3 119.3 119.8 414.5
08/05 01:40 22.9 55 11.24 13.6 9 11 1012.1 0 24.7 27.3 45.3 119.3 119.8 414.5
08/05 01:30 22.9 57 11.65 13.9 11 17 1012.2 0 25.6 28.0 46.9 123.6 125.1 433.0
08/05 01:20 22.7 58 11.72 14 11 15 1012.2 0 25.7 28.2 47.3 124.6 126.3 437.2
08/05 01:10 22.8 58 11.78 14.1 7 9 1012.3 0 25.8 28.2 47.5 125.1 126.9 439.4
08/05 01:00 22.8 58 11.78 14.1 9 13 1012.4 0 25.8 28.2 47.5 125.1 126.9 439.5
08/05 00:50 22.6 58 11.65 13.9 7 13 1012.4 0 25.6 28.1 47.1 124.0 125.6 434.7
08/05 00:40 22.9 57 11.65 13.9 7 11 1012.5 0 25.6 28.0 46.9 123.6 125.1 433.1
08/05 00:30 23 57 11.71 14 9 13 1012.6 0 25.7 28.1 47.1 124.1 125.7 435.3
08/05 00:20 23.1 55 11.37 13.8 11 13 1012.6 0 25.0 27.5 45.7 120.4 121.2 419.5
08/05 00:10 23.1 57 11.78 14.1 7 9 1012.6 0 25.8 28.2 47.3 124.7 126.5 437.9
08/05 00:00 23.1 57 11.78 14.1 7 13 1012.7 0 25.8 28.2 47.3 124.7 126.5 437.9
07/05 23:50 23.3 57 11.92 14.3 7 9 1012.7 0 26.1 28.3 47.8 125.8 128.0 443.1
07/05 23:40 23.1 57 11.78 14.3 7 9 1012.8 0 25.8 28.2 47.3 124.7 126.5 437.9
07/05 23:30 23.3 59 12.34 14.8 7 13 1012.8 0 27.0 29.0 49.4 130.3 133.5 462.3
07/05 23:20 23.6 57 12.12 14.8 6 7 1012.8 0 26.5 28.5 48.4 127.5 130.1 450.5
07/05 23:10 23.8 56 12.05 14.7 6 9 1012.9 0 26.4 28.4 48.0 126.4 128.8 446.2
07/05 23:00 23.7 57 12.19 14.7 6 11 1012.9 0 26.7 28.6 48.6 128.1 130.8 453.2
07/05 22:50 23.9 56 12.11 14.6 9 11 1012.9 0 26.5 28.4 48.2 126.9 129.5 448.4
07/05 22:40 24 55 11.97 14.4 6 7 1012.9 0 26.2 28.2 47.5 125.3 127.5 441.5
07/05 22:30 24.1 56 12.25 14.8 6 9 1012.9 0 26.8 28.6 48.6 128.0 130.9 453.6
07/05 22:20 24.3 55 12.17 14.9 6 6 1012.9 0 26.6 28.4 48.1 126.9 129.6 448.8
07/05 22:10 24.2 55 12.1 14.8 6 7 1012.9 0 26.4 28.3 47.9 126.3 128.8 446.2
07/05 22:00 24.4 56 12.46 15.1 6 9 1013 0 27.2 28.8 49.2 129.8 133.2 461.4
07/05 21:50 24.9 53 12.13 14.9 6 7 1013 0 26.5 28.1 47.6 125.5 128.1 443.7
07/05 21:40 25.1 52 12.04 14.8 4 6 1013 0 26.3 27.9 47.2 124.3 126.6 438.6
07/05 21:30 25.5 51 12.07 14.6 7 9 1012.9 0 26.3 27.9 47.0 123.9 126.3 437.7
07/05 21:20 25.3 53 12.41 15 7 9 1012.8 0 27.0 28.5 48.5 127.8 131.0 453.8
07/05 21:10 25.1 53 12.27 15.1 7 9 1012.8 0 26.7 28.3 48.0 126.6 129.5 448.7
07/05 21:00 25.1 55 12.73 15.4 6 7 1012.7 0 27.7 29.0 49.8 131.4 135.4 469.4
07/05 20:50 25.2 54 12.57 15.2 6 6 1012.6 0 27.4 28.7 49.2 129.6 133.2 461.5
07/05 20:40 25.5 52 12.31 14.9 4 6 1012.6 0 26.8 28.2 48.0 126.4 129.3 448.2
07/05 20:30 23.2 75 15.59 18.5 6 9 1012.4 0 33.9 34.5 63.2 166.9 178.5 619.2
07/05 20:20 22.2 82 16.1 19.1 4 4 1012.3 0 35.1 35.9 66.3 175.2 188.4 653.6
07/05 20:10 22.1 83 16.2 19.2 0 0 1012.2 0 35.3 36.1 66.8 176.6 190.1 659.6
07/05 20:00 22.3 79 15.6 18.5 0 0 1012.1 0 34.0 34.9 63.9 168.9 180.7 626.9
07/05 19:50 22.7 81 16.36 19.4 0 0 1012 0 35.6 36.1 67.0 177.2 190.9 662.6
07/05 19:40 23 84 17.26 20.1 0 0 1011.9 0 37.5 37.6 70.9 187.4 203.7 707.0

Last Refresh: 08-May-2026 12:10:20

Bureau of Meteorology